Time;durP1;ratioP1;P1;durP2;ratioP2;P2;SDS_P1;SDS_P2;PMS_P1;PMS_P2;Temp;Humidity;BMP_temperature;BMP_pressure;BME280_temperature;BME280_humidity;BME280_pressure;Samples;Min_cycle;Max_cycle;Signal;HPM_P1;HPM_P2
2022/03/16 00:01:16;;;;;;;22.50;9.60;;;;;;;;;;10289229;28;20100;-71
2022/03/16 00:06:16;;;;;;;21.75;9.90;;;;;;;;;;10289014;28;20030;-74
2022/03/16 00:11:16;;;;;;;23.85;11.85;;;;;;;;;;10285993;28;20034;-71
2022/03/16 00:16:17;;;;;;;21.23;10.05;;;;;;;;;;10287118;28;20057;-75
2022/03/16 00:21:17;;;;;;;25.90;10.65;;;;;;;;;;10304640;28;20019;-75
2022/03/16 00:26:17;;;;;;;24.87;9.77;;;;;;;;;;10289228;28;20413;-74
2022/03/16 00:31:18;;;;;;;20.15;12.27;;;;;;;;;;10287233;28;20255;-75
2022/03/16 00:36:21;;;;;;;26.80;13.37;;;;;;;;;;10287461;28;20019;-69
2022/03/16 00:41:21;;;;;;;25.48;12.43;;;;;;;;;;10286978;28;20473;-74
2022/03/16 00:46:22;;;;;;;25.45;12.02;;;;;;;;;;10303082;28;20022;-75
2022/03/16 00:51:23;;;;;;;26.35;13.38;;;;;;;;;;10286319;28;20034;-74
2022/03/16 00:56:23;;;;;;;25.33;12.85;;;;;;;;;;10287021;28;20047;-75
2022/03/16 01:01:23;;;;;;;16.08;8.93;;;;;;;;;;10286096;28;20030;-69
2022/03/16 01:06:24;;;;;;;15.83;8.57;;;;;;;;;;10287462;28;20030;-72
2022/03/16 01:11:24;;;;;;;18.23;9.20;;;;;;;;;;10287053;28;20027;-73
2022/03/16 01:16:24;;;;;;;16.70;9.97;;;;;;;;;;10285781;28;20050;-71
2022/03/16 01:21:24;;;;;;;15.73;9.85;;;;;;;;;;10285840;28;20031;-75
2022/03/16 01:26:25;;;;;;;16.13;9.27;;;;;;;;;;10284705;28;20122;-73
2022/03/16 01:31:25;;;;;;;22.50;10.00;;;;;;;;;;10284603;28;20031;-77
2022/03/16 01:36:25;;;;;;;22.17;9.10;;;;;;;;;;10284847;28;20035;-74
2022/03/16 01:41:26;;;;;;;22.55;8.73;;;;;;;;;;10284813;28;20073;-75
2022/03/16 01:46:26;;;;;;;20.45;10.10;;;;;;;;;;10285102;28;20053;-72
2022/03/16 01:51:26;;;;;;;15.88;7.63;;;;;;;;;;10309382;23;20054;-67
2022/03/16 01:56:27;;;;;;;18.00;9.17;;;;;;;;;;10324950;28;20105;-71
2022/03/16 02:01:27;;;;;;;27.23;10.68;;;;;;;;;;10324152;28;20264;-77
2022/03/16 02:06:27;;;;;;;25.10;10.35;;;;;;;;;;10324066;28;20030;-78
2022/03/16 02:11:27;;;;;;;22.30;10.73;;;;;;;;;;10340853;28;20032;-75
2022/03/16 02:16:32;;;;;;;18.50;9.82;;;;;;;;;;10304770;28;20019;-75
2022/03/16 02:21:36;;;;;;;18.83;9.93;;;;;;;;;;10292960;28;20117;-72
2022/03/16 02:26:36;;;;;;;22.75;10.40;;;;;;;;;;10323721;28;20026;-76
2022/03/16 02:31:36;;;;;;;18.83;10.18;;;;;;;;;;10324790;28;20044;-75
2022/03/16 02:36:37;;;;;;;22.58;9.23;;;;;;;;;;10298917;28;20038;-72
2022/03/16 02:41:37;;;;;;;21.17;10.50;;;;;;;;;;10283139;28;20050;-76
2022/03/16 02:46:37;;;;;;;18.10;9.90;;;;;;;;;;10283972;28;20515;-75
2022/03/16 02:51:38;;;;;;;15.90;10.18;;;;;;;;;;10282801;28;20053;-72
2022/03/16 02:56:38;;;;;;;23.23;10.48;;;;;;;;;;10282753;28;20030;-71
2022/03/16 03:01:38;;;;;;;22.08;12.15;;;;;;;;;;10314716;28;20037;-75
2022/03/16 03:06:38;;;;;;;24.00;11.03;;;;;;;;;;10322245;28;20030;-76
2022/03/16 03:11:40;;;;;;;25.30;11.45;;;;;;;;;;10322446;28;20027;-76
2022/03/16 03:16:40;;;;;;;25.92;10.48;;;;;;;;;;10322037;28;20054;-71
2022/03/16 03:21:40;;;;;;;21.42;9.93;;;;;;;;;;10322794;28;20113;-73
2022/03/16 03:26:41;;;;;;;22.10;9.88;;;;;;;;;;10322138;28;20045;-77
2022/03/16 03:31:42;;;;;;;18.52;9.88;;;;;;;;;;10324166;28;20477;-71
2022/03/16 03:36:42;;;;;;;19.75;10.63;;;;;;;;;;10321790;28;20022;-72
2022/03/16 03:41:43;;;;;;;21.20;10.48;;;;;;;;;;10301872;28;20378;-72
2022/03/16 03:46:43;;;;;;;22.27;10.55;;;;;;;;;;10282657;28;20023;-72
2022/03/16 03:51:43;;;;;;;19.90;10.85;;;;;;;;;;10287692;28;20053;-75
2022/03/16 03:56:44;;;;;;;25.40;11.70;;;;;;;;;;10330316;28;20018;-71
2022/03/16 04:01:44;;;;;;;16.75;9.40;;;;;;;;;;10329166;28;20026;-72
2022/03/16 04:06:44;;;;;;;23.58;11.27;;;;;;;;;;10328280;28;20037;-70
2022/03/16 04:11:45;;;;;;;22.93;10.30;;;;;;;;;;10312573;28;20522;-73
2022/03/16 04:16:45;;;;;;;19.33;9.68;;;;;;;;;;10303892;28;20397;-75
2022/03/16 04:21:45;;;;;;;26.90;11.27;;;;;;;;;;10288045;28;20031;-75
2022/03/16 04:26:45;;;;;;;40.00;13.05;;;;;;;;;;10287660;28;20436;-75
2022/03/16 04:31:46;;;;;;;32.23;14.77;;;;;;;;;;10288822;28;20505;-71
2022/03/16 04:36:46;;;;;;;25.65;12.70;;;;;;;;;;10286994;28;20595;-76
2022/03/16 04:41:46;;;;;;;21.80;11.80;;;;;;;;;;10301973;28;20042;-75
2022/03/16 04:46:46;;;;;;;23.60;12.82;;;;;;;;;;10308537;28;20162;-70
2022/03/16 04:51:47;;;;;;;24.57;9.97;;;;;;;;;;10306989;28;20185;-72
2022/03/16 04:56:47;;;;;;;19.33;11.13;;;;;;;;;;10326195;28;20022;-72
2022/03/16 05:01:47;;;;;;;19.47;9.77;;;;;;;;;;10302145;28;20031;-73
2022/03/16 05:06:48;;;;;;;20.13;11.43;;;;;;;;;;10285819;28;20282;-73
2022/03/16 05:11:48;;;;;;;20.13;10.63;;;;;;;;;;10307407;28;20703;-74
2022/03/16 05:16:48;;;;;;;26.70;13.65;;;;;;;;;;10313348;28;20030;-73
2022/03/16 05:21:49;;;;;;;26.23;11.90;;;;;;;;;;10286089;28;20037;-72
2022/03/16 05:26:49;;;;;;;49.78;11.20;;;;;;;;;;10285407;28;20425;-71
2022/03/16 05:31:50;;;;;;;32.42;12.15;;;;;;;;;;10285070;28;20544;-75
2022/03/16 05:36:50;;;;;;;21.17;11.05;;;;;;;;;;10284639;28;20029;-79
2022/03/16 05:41:50;;;;;;;18.37;9.70;;;;;;;;;;10284429;28;20037;-75
2022/03/16 05:46:52;;;;;;;20.73;9.32;;;;;;;;;;10284220;28;20027;-77
2022/03/16 05:51:53;;;;;;;18.05;9.73;;;;;;;;;;10283484;28;20462;-73
2022/03/16 05:56:53;;;;;;;26.10;11.25;;;;;;;;;;10283410;28;20137;-73
2022/03/16 06:01:53;;;;;;;24.60;10.73;;;;;;;;;;10282980;28;20038;-74
2022/03/16 06:06:53;;;;;;;25.38;12.02;;;;;;;;;;10283220;28;20050;-74
2022/03/16 06:11:54;;;;;;;30.00;12.35;;;;;;;;;;10316181;28;20089;-75
2022/03/16 06:16:54;;;;;;;29.87;13.83;;;;;;;;;;10283377;28;20118;-75
2022/03/16 06:21:54;;;;;;;31.42;14.23;;;;;;;;;;10281484;28;20121;-78
2022/03/16 06:26:55;;;;;;;34.57;16.83;;;;;;;;;;10297667;28;20071;-74
2022/03/16 06:31:55;;;;;;;40.60;15.48;;;;;;;;;;10297844;28;20270;-74
2022/03/16 06:36:56;;;;;;;45.05;16.98;;;;;;;;;;10312941;28;20026;-73
2022/03/16 06:41:56;;;;;;;36.78;15.77;;;;;;;;;;10289311;28;20420;-76
2022/03/16 06:46:56;;;;;;;40.83;16.52;;;;;;;;;;10321544;28;20022;-73
2022/03/16 06:51:56;;;;;;;35.08;15.43;;;;;;;;;;10320654;28;20444;-80
2022/03/16 06:56:57;;;;;;;45.08;16.48;;;;;;;;;;10321596;28;20027;-79
2022/03/16 07:01:57;;;;;;;29.17;15.17;;;;;;;;;;10323666;28;20030;-73
2022/03/16 07:06:57;;;;;;;37.63;16.15;;;;;;;;;;10321377;28;20108;-75
2022/03/16 07:11:58;;;;;;;39.83;17.75;;;;;;;;;;10321284;28;20030;-76
2022/03/16 07:16:59;;;;;;;47.97;17.50;;;;;;;;;;10320993;28;20030;-72
2022/03/16 07:22:01;;;;;;;38.20;17.10;;;;;;;;;;10318130;28;20037;-77
2022/03/16 07:27:04;;;;;;;50.67;18.95;;;;;;;;;;10324464;28;20066;-77
2022/03/16 07:32:04;;;;;;;47.53;19.75;;;;;;;;;;10326024;28;20022;-76
2022/03/16 07:37:04;;;;;;;52.35;20.08;;;;;;;;;;10351853;28;20026;-70
2022/03/16 07:42:05;;;;;;;39.83;18.30;;;;;;;;;;10326584;28;20324;-71
2022/03/16 07:47:07;;;;;;;45.33;18.73;;;;;;;;;;10325057;28;20034;-75
2022/03/16 07:52:07;;;;;;;50.53;18.52;;;;;;;;;;10323910;28;20091;-71
2022/03/16 07:57:08;;;;;;;42.55;15.02;;;;;;;;;;10339319;28;20027;-70
2022/03/16 08:02:08;;;;;;;50.55;17.60;;;;;;;;;;10307805;28;20026;-70
2022/03/16 08:07:11;;;;;;;35.27;15.93;;;;;;;;;;10325612;28;20030;-72
2022/03/16 08:12:11;;;;;;;34.55;14.65;;;;;;;;;;10322425;28;20400;-72
2022/03/16 08:17:12;;;;;;;32.33;16.45;;;;;;;;;;10326144;28;20041;-74
2022/03/16 08:22:12;;;;;;;31.67;14.47;;;;;;;;;;10325316;28;20032;-70
2022/03/16 08:27:12;;;;;;;36.72;16.25;;;;;;;;;;10326738;28;20053;-74
2022/03/16 08:32:13;;;;;;;42.38;15.65;;;;;;;;;;10326457;28;20480;-75
2022/03/16 08:37:13;;;;;;;36.13;16.33;;;;;;;;;;10321357;28;20023;-71
2022/03/16 08:42:14;;;;;;;39.60;16.10;;;;;;;;;;10324442;28;20044;-71
2022/03/16 08:47:18;;;;;;;44.35;16.40;;;;;;;;;;10322579;28;20097;-74
2022/03/16 08:52:18;;;;;;;38.10;17.80;;;;;;;;;;10323400;28;20046;-71
2022/03/16 08:57:21;;;;;;;33.92;15.07;;;;;;;;;;10331593;28;20038;-70
2022/03/16 09:02:22;;;;;;;38.95;13.70;;;;;;;;;;10323400;28;20042;-70
2022/03/16 09:07:22;;;;;;;31.70;12.82;;;;;;;;;;10325234;28;20117;-71
2022/03/16 09:12:24;;;;;;;26.00;13.05;;;;;;;;;;10324586;28;20555;-72
2022/03/16 09:17:24;;;;;;;35.03;14.07;;;;;;;;;;10322758;28;20069;-76
2022/03/16 09:22:24;;;;;;;39.50;14.02;;;;;;;;;;10331933;28;20113;-71
2022/03/16 09:27:25;;;;;;;31.70;15.23;;;;;;;;;;10321826;28;20033;-76
2022/03/16 09:32:26;;;;;;;33.40;14.25;;;;;;;;;;10322427;28;20052;-69
2022/03/16 09:37:26;;;;;;;34.63;13.38;;;;;;;;;;10346434;28;20636;-75
2022/03/16 09:42:29;;;;;;;42.27;13.47;;;;;;;;;;10322948;28;20472;-71
2022/03/16 09:47:29;;;;;;;44.58;14.65;;;;;;;;;;10322542;28;20452;-70
2022/03/16 09:52:30;;;;;;;51.75;14.32;;;;;;;;;;10325060;28;20105;-72
2022/03/16 09:57:30;;;;;;;43.60;15.50;;;;;;;;;;10324715;28;20161;-76
2022/03/16 10:02:31;;;;;;;44.33;14.23;;;;;;;;;;10323443;28;20041;-75
2022/03/16 10:07:32;;;;;;;43.60;17.63;;;;;;;;;;10322883;28;20022;-72
2022/03/16 10:18:07;;;;;;;38.38;14.70;;;;;;;;;;10324748;28;20109;-71
2022/03/16 10:23:09;;;;;;;37.38;14.40;;;;;;;;;;10323138;28;20452;-74
2022/03/16 10:28:13;;;;;;;46.05;17.95;;;;;;;;;;10323151;28;20041;-74
2022/03/16 10:33:15;;;;;;;36.63;15.73;;;;;;;;;;10323143;28;20521;-72
2022/03/16 10:38:15;;;;;;;41.58;15.88;;;;;;;;;;10324113;28;20030;-70
2022/03/16 10:48:38;;;;;;;33.38;15.73;;;;;;;;;;10323472;28;20030;-68
2022/03/16 10:53:38;;;;;;;33.65;16.15;;;;;;;;;;10321599;28;20046;-72
2022/03/16 10:58:39;;;;;;;50.47;15.77;;;;;;;;;;10318284;28;20042;-71
2022/03/16 11:03:41;;;;;;;37.28;15.38;;;;;;;;;;10295832;28;20023;-72
2022/03/16 11:08:42;;;;;;;52.97;19.30;;;;;;;;;;10294908;28;20027;-73
2022/03/16 11:13:43;;;;;;;46.95;19.33;;;;;;;;;;10313535;28;20027;-72
2022/03/16 11:18:45;;;;;;;57.67;22.07;;;;;;;;;;10319836;28;20038;-71
2022/03/16 11:29:08;;;;;;;61.15;23.00;;;;;;;;;;10296347;28;20475;-72
2022/03/16 11:34:10;;;;;;;51.25;20.85;;;;;;;;;;10294329;28;20739;-70
2022/03/16 11:39:19;;;;;;;46.78;20.90;;;;;;;;;;10311082;28;20053;-76
2022/03/16 11:44:26;;;;;;;49.80;22.70;;;;;;;;;;10304633;28;20054;-70
2022/03/16 11:49:29;;;;;;;49.63;22.38;;;;;;;;;;10310619;28;20417;-71
2022/03/16 11:54:45;;;;;;;57.88;18.98;;;;;;;;;;10329159;28;20424;-70
2022/03/16 11:59:45;;;;;;;47.00;17.42;;;;;;;;;;10333840;28;20030;-70
2022/03/16 12:04:46;;;;;;;36.83;14.77;;;;;;;;;;10335634;28;20452;-73
2022/03/16 12:09:49;;;;;;;40.47;15.32;;;;;;;;;;10333952;28;20864;-69
2022/03/16 12:15:00;;;;;;;29.55;13.07;;;;;;;;;;10290072;28;20382;-72
2022/03/16 12:20:12;;;;;;;30.30;13.57;;;;;;;;;;10287497;28;20038;-71
2022/03/16 12:25:32;;;;;;;24.95;12.13;;;;;;;;;;10286961;28;20029;-73
2022/03/16 12:30:36;;;;;;;38.75;12.13;;;;;;;;;;10320154;28;20412;-75
2022/03/16 12:35:37;;;;;;;28.15;11.65;;;;;;;;;;10326072;28;20734;-72
2022/03/16 12:42:31;;;;;;;28.90;12.57;;;;;;;;;;10326434;28;20109;-74
2022/03/16 12:46:06;;;;;;;36.53;12.13;;;;;;;;;;10327374;28;20022;-75
2022/03/16 12:51:07;;;;;;;31.02;11.98;;;;;;;;;;10328218;28;20081;-73
2022/03/16 12:56:10;;;;;;;28.65;10.77;;;;;;;;;;10326074;28;20039;-71
2022/03/16 13:01:20;;;;;;;31.83;12.30;;;;;;;;;;10306974;28;20026;-71
2022/03/16 13:06:21;;;;;;;27.15;11.02;;;;;;;;;;10326073;28;20030;-73
2022/03/16 13:11:27;;;;;;;27.98;11.30;;;;;;;;;;10325572;28;20034;-74
2022/03/16 13:16:35;;;;;;;35.63;12.52;;;;;;;;;;10324774;28;20037;-70
2022/03/16 13:21:36;;;;;;;26.67;11.25;;;;;;;;;;10325964;28;20171;-74
2022/03/16 13:26:37;;;;;;;33.65;11.27;;;;;;;;;;10326550;28;20121;-70
2022/03/16 13:31:39;;;;;;;29.30;10.25;;;;;;;;;;10325670;28;20029;-78
2022/03/16 13:36:51;;;;;;;33.65;8.57;;;;;;;;;;10324862;28;20195;-76
2022/03/16 13:42:05;;;;;;;20.90;8.18;;;;;;;;;;10324950;28;20389;-70
2022/03/16 13:47:06;;;;;;;18.77;8.10;;;;;;;;;;10304871;28;20485;-73
2022/03/16 13:52:08;;;;;;;25.23;9.32;;;;;;;;;;10283798;28;20046;-73
2022/03/16 13:57:10;;;;;;;32.13;11.52;;;;;;;;;;10308830;28;20038;-75
2022/03/16 14:02:11;;;;;;;33.45;12.27;;;;;;;;;;10315635;28;20030;-71
2022/03/16 14:07:20;;;;;;;45.47;11.93;;;;;;;;;;10310983;28;20034;-70
2022/03/16 14:12:22;;;;;;;38.97;14.77;;;;;;;;;;10318721;28;20520;-72
2022/03/16 14:17:37;;;;;;;41.28;11.43;;;;;;;;;;10321993;28;20041;-72
2022/03/16 14:22:38;;;;;;;38.45;13.00;;;;;;;;;;10302319;28;20053;-74
2022/03/16 14:27:38;;;;;;;22.65;11.38;;;;;;;;;;10296575;28;20038;-74
2022/03/16 14:32:38;;;;;;;33.63;12.20;;;;;;;;;;10297471;28;20448;-71
2022/03/16 14:37:39;;;;;;;23.63;9.48;;;;;;;;;;10297617;28;20476;-75
2022/03/16 14:42:39;;;;;;;16.50;8.50;;;;;;;;;;10291526;28;20073;-71
2022/03/16 14:47:39;;;;;;;32.67;9.65;;;;;;;;;;10321966;28;20376;-75
2022/03/16 14:52:40;;;;;;;13.45;6.97;;;;;;;;;;10319651;28;20163;-71
2022/03/16 14:57:40;;;;;;;14.73;7.00;;;;;;;;;;10320612;28;20026;-74
2022/03/16 15:02:40;;;;;;;23.02;7.25;;;;;;;;;;10297400;28;20224;-73
2022/03/16 15:07:41;;;;;;;18.90;6.88;;;;;;;;;;10280925;28;20130;-74
2022/03/16 15:12:41;;;;;;;19.03;7.10;;;;;;;;;;10296730;28;20038;-71
2022/03/16 15:17:41;;;;;;;16.30;7.28;;;;;;;;;;10282230;28;20037;-72
2022/03/16 15:22:42;;;;;;;15.20;7.77;;;;;;;;;;10285151;28;20440;-77
2022/03/16 15:27:43;;;;;;;18.08;8.90;;;;;;;;;;10309370;28;20036;-73
2022/03/16 15:32:43;;;;;;;21.95;8.07;;;;;;;;;;10300691;28;20026;-77
2022/03/16 15:37:43;;;;;;;18.60;7.32;;;;;;;;;;10296165;28;20369;-71
2022/03/16 15:42:47;;;;;;;19.43;8.40;;;;;;;;;;10298316;28;20484;-77
2022/03/16 15:47:47;;;;;;;19.73;9.25;;;;;;;;;;10322187;28;20018;-75
2022/03/16 15:52:48;;;;;;;26.70;11.48;;;;;;;;;;10327531;28;20055;-71
2022/03/16 15:57:48;;;;;;;34.38;12.65;;;;;;;;;;10319285;28;20528;-67
2022/03/16 16:02:51;;;;;;;22.57;11.80;;;;;;;;;;10300507;28;20030;-71
2022/03/16 16:07:51;;;;;;;22.02;9.77;;;;;;;;;;10325929;28;20022;-70
2022/03/16 16:12:52;;;;;;;18.10;10.40;;;;;;;;;;10329316;28;20443;-74
2022/03/16 16:17:53;;;;;;;22.98;10.57;;;;;;;;;;10328019;28;20077;-70
2022/03/16 16:22:53;;;;;;;22.67;11.70;;;;;;;;;;10327944;28;20479;-75
2022/03/16 16:27:54;;;;;;;23.70;10.05;;;;;;;;;;10325020;28;20025;-74
2022/03/16 16:32:54;;;;;;;22.13;11.02;;;;;;;;;;10324008;28;20045;-73
2022/03/16 16:37:55;;;;;;;21.35;9.68;;;;;;;;;;10325351;28;20465;-74
2022/03/16 16:43:14;;;;;;;23.67;11.30;;;;;;;;;;10343909;28;20022;-71
2022/03/16 16:48:18;;;;;;;22.25;11.15;;;;;;;;;;10366153;28;20084;-70
2022/03/16 16:53:20;;;;;;;18.33;11.07;;;;;;;;;;10332782;28;20053;-74
2022/03/16 16:58:21;;;;;;;20.40;11.57;;;;;;;;;;10308957;28;20387;-76
2022/03/16 17:03:25;;;;;;;24.45;9.73;;;;;;;;;;10293831;28;20030;-75
2022/03/16 17:08:26;;;;;;;22.40;10.55;;;;;;;;;;10293370;28;20115;-74
2022/03/16 17:13:28;;;;;;;20.00;11.18;;;;;;;;;;10300788;28;20484;-72
2022/03/16 17:18:29;;;;;;;24.08;12.80;;;;;;;;;;10285076;28;20051;-75
2022/03/16 17:23:29;;;;;;;33.70;13.10;;;;;;;;;;10322985;28;20491;-74
2022/03/16 17:28:30;;;;;;;23.20;11.77;;;;;;;;;;10324535;28;20141;-70
2022/03/16 17:33:30;;;;;;;30.35;13.85;;;;;;;;;;10323367;28;20035;-72
2022/03/16 17:38:30;;;;;;;23.63;14.17;;;;;;;;;;10324805;28;20050;-71
2022/03/16 17:49:01;;;;;;;25.52;12.68;;;;;;;;;;10324892;28;20022;-72
2022/03/16 17:54:01;;;;;;;23.35;13.88;;;;;;;;;;10308798;28;20073;-69
2022/03/16 17:59:01;;;;;;;32.57;15.10;;;;;;;;;;10323553;28;20420;-73
2022/03/16 18:04:02;;;;;;;27.00;14.77;;;;;;;;;;10298937;28;20268;-70
2022/03/16 18:09:03;;;;;;;28.52;15.13;;;;;;;;;;10302704;28;20409;-71
2022/03/16 18:14:03;;;;;;;46.63;20.42;;;;;;;;;;10322916;28;20018;-69
2022/03/16 18:19:03;;;;;;;41.35;22.17;;;;;;;;;;10321445;28;20049;-74
2022/03/16 18:24:04;;;;;;;55.07;27.13;;;;;;;;;;10323160;28;20025;-71
2022/03/16 18:29:04;;;;;;;57.70;28.48;;;;;;;;;;10324529;28;20109;-70
2022/03/16 18:34:05;;;;;;;52.33;25.48;;;;;;;;;;10322343;28;20493;-70
2022/03/16 18:39:08;;;;;;;59.70;26.63;;;;;;;;;;10309625;28;20018;-71
2022/03/16 18:44:08;;;;;;;48.72;25.90;;;;;;;;;;10281931;28;20033;-72
2022/03/16 18:49:09;;;;;;;59.20;27.02;;;;;;;;;;10289426;28;20488;-72
2022/03/16 18:54:09;;;;;;;49.15;25.98;;;;;;;;;;10321364;28;20054;-74
2022/03/16 18:59:10;;;;;;;51.92;24.75;;;;;;;;;;10320670;28;20033;-76
2022/03/16 19:04:11;;;;;;;43.35;24.15;;;;;;;;;;10320910;28;20570;-75
2022/03/16 19:09:11;;;;;;;48.30;24.45;;;;;;;;;;10320883;28;20030;-74
2022/03/16 19:14:13;;;;;;;46.72;24.10;;;;;;;;;;10321542;28;20019;-71
2022/03/16 19:19:15;;;;;;;40.67;21.25;;;;;;;;;;10317577;28;20057;-70
2022/03/16 19:24:18;;;;;;;39.92;23.15;;;;;;;;;;10288657;28;20022;-70
2022/03/16 19:29:21;;;;;;;33.88;15.80;;;;;;;;;;10288932;28;20485;-71
2022/03/16 19:34:21;;;;;;;21.88;12.18;;;;;;;;;;10288720;28;20029;-71
2022/03/16 19:39:21;;;;;;;24.23;13.73;;;;;;;;;;10288842;28;20026;-71
2022/03/16 19:44:22;;;;;;;21.07;12.70;;;;;;;;;;10331475;28;20025;-75
2022/03/16 19:49:22;;;;;;;19.10;12.77;;;;;;;;;;10325620;28;20019;-71
2022/03/16 19:54:23;;;;;;;18.70;11.80;;;;;;;;;;10325446;28;20054;-71
2022/03/16 19:59:24;;;;;;;23.17;13.48;;;;;;;;;;10324841;28;20026;-71
2022/03/16 20:04:24;;;;;;;33.65;13.93;;;;;;;;;;10327988;28;20054;-75
2022/03/16 20:09:26;;;;;;;24.53;14.00;;;;;;;;;;10327324;28;20101;-72
2022/03/16 20:14:26;;;;;;;27.83;13.30;;;;;;;;;;10327083;28;20433;-70
2022/03/16 20:19:27;;;;;;;26.60;12.20;;;;;;;;;;10327809;28;20121;-75
2022/03/16 20:24:27;;;;;;;34.10;16.35;;;;;;;;;;10315565;28;20092;-69
2022/03/16 20:29:28;;;;;;;32.80;12.50;;;;;;;;;;10322964;28;20106;-71
2022/03/16 20:34:28;;;;;;;18.70;11.40;;;;;;;;;;10302428;28;20022;-70
2022/03/16 20:39:28;;;;;;;19.55;12.68;;;;;;;;;;10286921;28;20023;-71
2022/03/16 20:44:29;;;;;;;19.57;11.23;;;;;;;;;;10291061;28;20127;-74
2022/03/16 20:49:29;;;;;;;25.37;12.47;;;;;;;;;;10286799;28;20033;-70
2022/03/16 20:54:29;;;;;;;21.55;12.38;;;;;;;;;;10301209;28;20064;-73
2022/03/16 21:04:54;;;;;;;18.73;11.20;;;;;;;;;;10287148;28;20031;-70
2022/03/16 21:09:54;;;;;;;32.30;13.90;;;;;;;;;;10319779;28;20515;-70
2022/03/16 21:14:54;;;;;;;30.95;13.18;;;;;;;;;;10302069;28;20023;-74
2022/03/16 21:19:55;;;;;;;23.92;12.50;;;;;;;;;;10291571;28;20023;-74
2022/03/16 21:24:55;;;;;;;26.30;13.20;;;;;;;;;;10284830;28;20019;-70
2022/03/16 21:29:57;;;;;;;21.25;13.18;;;;;;;;;;10284489;28;20018;-71
2022/03/16 21:34:57;;;;;;;21.63;11.80;;;;;;;;;;10301101;28;20110;-69
2022/03/16 21:42:45;;;;;;;25.70;11.73;;;;;;;;;;10284711;28;20025;-70
2022/03/16 21:50:34;;;;;;;19.90;11.13;;;;;;;;;;10302278;28;20389;-73
2022/03/16 21:55:35;;;;;;;23.02;11.98;;;;;;;;;;10324376;28;20082;-70
2022/03/16 22:00:47;;;;;;;21.77;11.65;;;;;;;;;;10323428;28;20121;-69
2022/03/16 22:05:47;;;;;;;24.33;12.18;;;;;;;;;;10323261;28;20173;-72
2022/03/16 22:10:48;;;;;;;21.98;11.20;;;;;;;;;;10324777;28;20142;-73
2022/03/16 22:15:49;;;;;;;20.08;11.45;;;;;;;;;;10323093;28;20026;-71
2022/03/16 22:26:09;;;;;;;20.65;11.98;;;;;;;;;;10284290;28;20035;-72
2022/03/16 22:31:09;;;;;;;21.45;11.25;;;;;;;;;;10282644;28;20029;-71
2022/03/16 22:36:10;;;;;;;21.75;12.48;;;;;;;;;;10322192;28;20030;-72
2022/03/16 22:41:11;;;;;;;17.63;11.70;;;;;;;;;;10312858;28;20033;-72
2022/03/16 22:46:14;;;;;;;24.27;12.35;;;;;;;;;;10282992;28;20057;-71
2022/03/16 22:51:15;;;;;;;23.20;12.10;;;;;;;;;;10299106;28;20425;-72
2022/03/16 22:56:15;;;;;;;21.00;11.35;;;;;;;;;;10298960;28;20029;-71
2022/03/16 23:01:15;;;;;;;21.60;11.02;;;;;;;;;;10283575;28;20019;-71
2022/03/16 23:06:16;;;;;;;25.10;11.30;;;;;;;;;;10283031;28;20031;-72
2022/03/16 23:11:16;;;;;;;18.88;11.55;;;;;;;;;;10283271;28;20026;-75
2022/03/16 23:16:16;;;;;;;22.20;11.60;;;;;;;;;;10282353;28;20477;-71
2022/03/16 23:21:17;;;;;;;19.23;11.37;;;;;;;;;;10282688;28;20027;-72
2022/03/16 23:26:17;;;;;;;22.10;11.82;;;;;;;;;;10282529;28;20378;-72
2022/03/16 23:31:17;;;;;;;16.95;10.23;;;;;;;;;;10282419;28;20031;-72
2022/03/16 23:36:20;;;;;;;25.23;12.30;;;;;;;;;;10283872;28;20034;-75
2022/03/16 23:41:21;;;;;;;23.23;12.60;;;;;;;;;;10282349;28;20022;-75
2022/03/16 23:46:21;;;;;;;19.83;11.82;;;;;;;;;;10298335;28;20093;-71
2022/03/16 23:51:22;;;;;;;26.43;12.83;;;;;;;;;;10283300;28;20042;-71
2022/03/16 23:56:22;;;;;;;25.00;11.95;;;;;;;;;;10298442;28;20117;-74
